sensor_id;sensor_type;location;lat;lon;timestamp;temperature;humidity
34406;DHT22;20658;45.630;8.886;2022-12-07T00:02:03;1.50;99.90
34406;DHT22;20658;45.630;8.886;2022-12-07T00:04:31;1.70;99.90
34406;DHT22;20658;45.630;8.886;2022-12-07T00:07:00;1.50;99.90
34406;DHT22;20658;45.630;8.886;2022-12-07T00:09:29;1.50;99.90
34406;DHT22;20658;45.630;8.886;2022-12-07T00:11:58;1.50;99.90
34406;DHT22;20658;45.630;8.886;2022-12-07T00:14:26;1.50;99.90
34406;DHT22;20658;45.630;8.886;2022-12-07T00:16:55;1.50;99.90
34406;DHT22;20658;45.630;8.886;2022-12-07T00:19:25;1.50;99.90
34406;DHT22;20658;45.630;8.886;2022-12-07T00:21:53;1.50;99.90
34406;DHT22;20658;45.630;8.886;2022-12-07T00:24:22;1.50;99.90
34406;DHT22;20658;45.630;8.886;2022-12-07T00:26:55;1.50;99.90
34406;DHT22;20658;45.630;8.886;2022-12-07T00:29:24;1.50;99.90
34406;DHT22;20658;45.630;8.886;2022-12-07T00:31:57;1.50;99.90
34406;DHT22;20658;45.630;8.886;2022-12-07T00:34:32;1.50;99.90
34406;DHT22;20658;45.630;8.886;2022-12-07T00:37:00;1.90;99.90
34406;DHT22;20658;45.630;8.886;2022-12-07T00:39:33;1.40;99.90
34406;DHT22;20658;45.630;8.886;2022-12-07T00:42:07;1.40;99.90
34406;DHT22;20658;45.630;8.886;2022-12-07T00:44:40;1.40;99.90
34406;DHT22;20658;45.630;8.886;2022-12-07T00:47:09;1.40;99.90
34406;DHT22;20658;45.630;8.886;2022-12-07T00:49:44;1.40;99.90
34406;DHT22;20658;45.630;8.886;2022-12-07T00:52:12;1.40;99.90
34406;DHT22;20658;45.630;8.886;2022-12-07T00:54:40;1.40;99.90
34406;DHT22;20658;45.630;8.886;2022-12-07T00:57:09;1.40;99.90
34406;DHT22;20658;45.630;8.886;2022-12-07T00:59:42;1.50;99.90
34406;DHT22;20658;45.630;8.886;2022-12-07T01:02:11;1.50;99.90
34406;DHT22;20658;45.630;8.886;2022-12-07T01:04:40;1.50;99.90
34406;DHT22;20658;45.630;8.886;2022-12-07T01:07:09;1.50;99.90
34406;DHT22;20658;45.630;8.886;2022-12-07T01:09:38;1.50;99.90
34406;DHT22;20658;45.630;8.886;2022-12-07T01:12:12;1.50;99.90
34406;DHT22;20658;45.630;8.886;2022-12-07T01:14:41;1.50;99.90
34406;DHT22;20658;45.630;8.886;2022-12-07T01:17:15;1.50;99.90
34406;DHT22;20658;45.630;8.886;2022-12-07T01:19:48;1.40;99.90
34406;DHT22;20658;45.630;8.886;2022-12-07T01:22:23;1.40;99.90
34406;DHT22;20658;45.630;8.886;2022-12-07T01:24:57;1.40;99.90
34406;DHT22;20658;45.630;8.886;2022-12-07T01:27:30;1.40;99.90
34406;DHT22;20658;45.630;8.886;2022-12-07T01:29:59;1.40;99.90
34406;DHT22;20658;45.630;8.886;2022-12-07T01:32:29;1.40;99.90
34406;DHT22;20658;45.630;8.886;2022-12-07T01:35:02;1.40;99.90
34406;DHT22;20658;45.630;8.886;2022-12-07T01:37:35;1.40;99.90
34406;DHT22;20658;45.630;8.886;2022-12-07T01:40:10;1.40;99.90
34406;DHT22;20658;45.630;8.886;2022-12-07T01:42:39;1.40;99.90
34406;DHT22;20658;45.630;8.886;2022-12-07T01:45:43;1.40;99.90
34406;DHT22;20658;45.630;8.886;2022-12-07T01:48:18;1.40;99.90
34406;DHT22;20658;45.630;8.886;2022-12-07T01:50:56;1.40;99.90
34406;DHT22;20658;45.630;8.886;2022-12-07T01:53:32;1.40;99.90
34406;DHT22;20658;45.630;8.886;2022-12-07T01:56:08;1.30;99.90
34406;DHT22;20658;45.630;8.886;2022-12-07T01:58:45;1.40;99.90
34406;DHT22;20658;45.630;8.886;2022-12-07T02:01:13;1.30;99.90
34406;DHT22;20658;45.630;8.886;2022-12-07T02:03:48;1.80;99.90
34406;DHT22;20658;45.630;8.886;2022-12-07T02:06:24;1.30;99.90
34406;DHT22;20658;45.630;8.886;2022-12-07T02:08:59;1.30;99.90
34406;DHT22;20658;45.630;8.886;2022-12-07T02:11:32;1.30;99.90
34406;DHT22;20658;45.630;8.886;2022-12-07T02:14:08;1.30;99.90
34406;DHT22;20658;45.630;8.886;2022-12-07T02:16:49;1.30;99.90
34406;DHT22;20658;45.630;8.886;2022-12-07T02:20:00;1.30;99.90
34406;DHT22;20658;45.630;8.886;2022-12-07T02:23:12;1.30;99.90
34406;DHT22;20658;45.630;8.886;2022-12-07T02:26:23;1.30;99.90
34406;DHT22;20658;45.630;8.886;2022-12-07T02:29:14;1.30;99.90
34406;DHT22;20658;45.630;8.886;2022-12-07T02:31:56;1.30;99.90
34406;DHT22;20658;45.630;8.886;2022-12-07T02:34:43;1.30;99.90
34406;DHT22;20658;45.630;8.886;2022-12-07T02:37:28;1.30;99.90
34406;DHT22;20658;45.630;8.886;2022-12-07T02:40:09;1.70;99.90
34406;DHT22;20658;45.630;8.886;2022-12-07T02:42:49;1.30;99.90
34406;DHT22;20658;45.630;8.886;2022-12-07T02:45:26;1.30;99.90
34406;DHT22;20658;45.630;8.886;2022-12-07T02:47:57;1.30;99.90
34406;DHT22;20658;45.630;8.886;2022-12-07T02:50:32;1.30;99.90
34406;DHT22;20658;45.630;8.886;2022-12-07T02:53:05;1.30;99.90
34406;DHT22;20658;45.630;8.886;2022-12-07T02:55:37;1.60;99.90
34406;DHT22;20658;45.630;8.886;2022-12-07T02:58:20;1.30;99.90
34406;DHT22;20658;45.630;8.886;2022-12-07T03:01:07;1.30;99.90
34406;DHT22;20658;45.630;8.886;2022-12-07T03:03:47;1.30;99.90
34406;DHT22;20658;45.630;8.886;2022-12-07T03:06:27;1.30;99.90
34406;DHT22;20658;45.630;8.886;2022-12-07T03:09:09;1.30;99.90
34406;DHT22;20658;45.630;8.886;2022-12-07T03:11:46;1.30;99.90
34406;DHT22;20658;45.630;8.886;2022-12-07T03:14:24;1.30;99.90
34406;DHT22;20658;45.630;8.886;2022-12-07T03:17:05;1.20;99.90
34406;DHT22;20658;45.630;8.886;2022-12-07T03:19:37;1.20;99.90
34406;DHT22;20658;45.630;8.886;2022-12-07T03:22:13;1.20;99.90
34406;DHT22;20658;45.630;8.886;2022-12-07T03:24:44;1.20;99.90
34406;DHT22;20658;45.630;8.886;2022-12-07T03:27:19;1.20;99.90
34406;DHT22;20658;45.630;8.886;2022-12-07T03:30:00;1.20;99.90
34406;DHT22;20658;45.630;8.886;2022-12-07T03:32:34;1.20;99.90
34406;DHT22;20658;45.630;8.886;2022-12-07T03:35:09;1.20;99.90
34406;DHT22;20658;45.630;8.886;2022-12-07T03:37:43;1.20;99.90
34406;DHT22;20658;45.630;8.886;2022-12-07T03:40:26;1.20;99.90
34406;DHT22;20658;45.630;8.886;2022-12-07T03:42:57;1.20;99.90
34406;DHT22;20658;45.630;8.886;2022-12-07T03:45:33;1.20;99.90
34406;DHT22;20658;45.630;8.886;2022-12-07T03:48:22;1.20;99.90
34406;DHT22;20658;45.630;8.886;2022-12-07T03:51:05;1.20;99.90
34406;DHT22;20658;45.630;8.886;2022-12-07T03:53:39;1.20;99.90
34406;DHT22;20658;45.630;8.886;2022-12-07T03:56:16;1.20;99.90
34406;DHT22;20658;45.630;8.886;2022-12-07T03:58:50;1.20;99.90
34406;DHT22;20658;45.630;8.886;2022-12-07T04:01:19;1.20;99.90
34406;DHT22;20658;45.630;8.886;2022-12-07T04:03:48;1.20;99.90
34406;DHT22;20658;45.630;8.886;2022-12-07T04:06:17;1.20;99.90
34406;DHT22;20658;45.630;8.886;2022-12-07T04:08:50;1.20;99.90
34406;DHT22;20658;45.630;8.886;2022-12-07T04:11:19;1.20;99.90
34406;DHT22;20658;45.630;8.886;2022-12-07T04:13:47;1.20;99.90
34406;DHT22;20658;45.630;8.886;2022-12-07T04:16:33;1.20;99.90
34406;DHT22;20658;45.630;8.886;2022-12-07T04:19:08;1.10;99.90
34406;DHT22;20658;45.630;8.886;2022-12-07T04:21:41;1.10;99.90
34406;DHT22;20658;45.630;8.886;2022-12-07T04:24:11;1.10;99.90
34406;DHT22;20658;45.630;8.886;2022-12-07T04:26:41;1.10;99.90
34406;DHT22;20658;45.630;8.886;2022-12-07T04:29:10;1.10;99.90
34406;DHT22;20658;45.630;8.886;2022-12-07T04:31:39;1.00;99.90
34406;DHT22;20658;45.630;8.886;2022-12-07T04:34:15;1.30;99.90
34406;DHT22;20658;45.630;8.886;2022-12-07T04:36:49;1.00;99.90
34406;DHT22;20658;45.630;8.886;2022-12-07T04:39:19;1.00;99.90
34406;DHT22;20658;45.630;8.886;2022-12-07T04:41:49;1.00;99.90
34406;DHT22;20658;45.630;8.886;2022-12-07T04:44:23;1.00;99.90
34406;DHT22;20658;45.630;8.886;2022-12-07T04:46:53;1.00;99.90
34406;DHT22;20658;45.630;8.886;2022-12-07T04:49:24;1.00;99.90
34406;DHT22;20658;45.630;8.886;2022-12-07T04:51:58;1.00;99.90
34406;DHT22;20658;45.630;8.886;2022-12-07T04:54:26;1.30;99.90
34406;DHT22;20658;45.630;8.886;2022-12-07T04:56:54;1.00;99.90
34406;DHT22;20658;45.630;8.886;2022-12-07T04:59:23;1.00;99.90
34406;DHT22;20658;45.630;8.886;2022-12-07T05:01:52;1.00;99.90
34406;DHT22;20658;45.630;8.886;2022-12-07T05:04:20;1.40;99.90
34406;DHT22;20658;45.630;8.886;2022-12-07T05:06:50;1.00;99.90
34406;DHT22;20658;45.630;8.886;2022-12-07T05:09:24;1.00;99.90
34406;DHT22;20658;45.630;8.886;2022-12-07T05:11:57;1.20;99.90
34406;DHT22;20658;45.630;8.886;2022-12-07T05:14:31;1.00;99.90
34406;DHT22;20658;45.630;8.886;2022-12-07T05:16:59;1.00;99.90
34406;DHT22;20658;45.630;8.886;2022-12-07T05:19:32;1.00;99.90
34406;DHT22;20658;45.630;8.886;2022-12-07T05:22:07;1.00;99.90
34406;DHT22;20658;45.630;8.886;2022-12-07T05:24:41;1.00;99.90
34406;DHT22;20658;45.630;8.886;2022-12-07T05:27:14;1.00;99.90
34406;DHT22;20658;45.630;8.886;2022-12-07T05:29:49;1.00;99.90
34406;DHT22;20658;45.630;8.886;2022-12-07T05:32:18;1.00;99.90
34406;DHT22;20658;45.630;8.886;2022-12-07T05:34:52;1.00;99.90
34406;DHT22;20658;45.630;8.886;2022-12-07T05:37:30;0.90;99.90
34406;DHT22;20658;45.630;8.886;2022-12-07T05:40:04;0.90;99.90
34406;DHT22;20658;45.630;8.886;2022-12-07T05:42:33;0.90;99.90
34406;DHT22;20658;45.630;8.886;2022-12-07T05:45:08;0.90;99.90
34406;DHT22;20658;45.630;8.886;2022-12-07T05:47:42;0.90;99.90
34406;DHT22;20658;45.630;8.886;2022-12-07T05:50:16;0.80;99.90
34406;DHT22;20658;45.630;8.886;2022-12-07T05:53:01;0.80;99.90
34406;DHT22;20658;45.630;8.886;2022-12-07T05:55:29;0.80;99.90
34406;DHT22;20658;45.630;8.886;2022-12-07T05:58:03;0.80;99.90
34406;DHT22;20658;45.630;8.886;2022-12-07T06:00:54;0.80;99.90
34406;DHT22;20658;45.630;8.886;2022-12-07T06:03:27;0.80;99.90
34406;DHT22;20658;45.630;8.886;2022-12-07T06:06:01;0.80;99.90
34406;DHT22;20658;45.630;8.886;2022-12-07T06:08:36;0.80;99.90
34406;DHT22;20658;45.630;8.886;2022-12-07T06:11:10;0.80;99.90
34406;DHT22;20658;45.630;8.886;2022-12-07T06:14:00;0.80;99.90
34406;DHT22;20658;45.630;8.886;2022-12-07T06:16:34;0.80;99.90
34406;DHT22;20658;45.630;8.886;2022-12-07T06:19:02;0.80;99.90
34406;DHT22;20658;45.630;8.886;2022-12-07T06:21:35;0.80;99.90
34406;DHT22;20658;45.630;8.886;2022-12-07T06:24:11;0.70;99.90
34406;DHT22;20658;45.630;8.886;2022-12-07T06:26:42;0.80;99.90
34406;DHT22;20658;45.630;8.886;2022-12-07T06:29:17;0.70;99.90
34406;DHT22;20658;45.630;8.886;2022-12-07T06:31:51;0.70;99.90
34406;DHT22;20658;45.630;8.886;2022-12-07T06:34:21;0.70;99.90
34406;DHT22;20658;45.630;8.886;2022-12-07T06:36:50;0.70;99.90
34406;DHT22;20658;45.630;8.886;2022-12-07T06:39:28;0.70;99.90
34406;DHT22;20658;45.630;8.886;2022-12-07T06:41:57;0.70;99.90
34406;DHT22;20658;45.630;8.886;2022-12-07T06:44:31;0.70;99.90
34406;DHT22;20658;45.630;8.886;2022-12-07T06:47:04;0.70;99.90
34406;DHT22;20658;45.630;8.886;2022-12-07T06:49:39;0.70;99.90
34406;DHT22;20658;45.630;8.886;2022-12-07T06:52:08;0.70;99.90
34406;DHT22;20658;45.630;8.886;2022-12-07T06:54:43;0.70;99.90
34406;DHT22;20658;45.630;8.886;2022-12-07T06:57:16;0.70;99.90
34406;DHT22;20658;45.630;8.886;2022-12-07T06:59:52;0.60;99.90
34406;DHT22;20658;45.630;8.886;2022-12-07T07:02:25;0.70;99.90
34406;DHT22;20658;45.630;8.886;2022-12-07T07:04:58;0.60;99.90
34406;DHT22;20658;45.630;8.886;2022-12-07T07:07:33;0.60;99.90
34406;DHT22;20658;45.630;8.886;2022-12-07T07:10:09;0.60;99.90
34406;DHT22;20658;45.630;8.886;2022-12-07T07:12:38;0.70;99.90
34406;DHT22;20658;45.630;8.886;2022-12-07T07:15:12;0.70;99.90
34406;DHT22;20658;45.630;8.886;2022-12-07T07:17:41;0.70;99.90
34406;DHT22;20658;45.630;8.886;2022-12-07T07:20:14;0.70;99.90
34406;DHT22;20658;45.630;8.886;2022-12-07T07:22:48;0.70;99.90
34406;DHT22;20658;45.630;8.886;2022-12-07T07:25:23;0.80;99.90
34406;DHT22;20658;45.630;8.886;2022-12-07T07:27:56;0.80;99.90
34406;DHT22;20658;45.630;8.886;2022-12-07T07:30:25;0.80;99.90
34406;DHT22;20658;45.630;8.886;2022-12-07T07:33:01;0.80;99.90
34406;DHT22;20658;45.630;8.886;2022-12-07T07:35:35;0.80;99.90
34406;DHT22;20658;45.630;8.886;2022-12-07T07:38:03;0.80;99.90
34406;DHT22;20658;45.630;8.886;2022-12-07T07:40:38;0.80;99.90
34406;DHT22;20658;45.630;8.886;2022-12-07T07:43:11;0.90;99.90
34406;DHT22;20658;45.630;8.886;2022-12-07T07:45:45;0.90;99.90
34406;DHT22;20658;45.630;8.886;2022-12-07T07:48:18;1.00;99.90
34406;DHT22;20658;45.630;8.886;2022-12-07T07:50:52;1.00;99.90
34406;DHT22;20658;45.630;8.886;2022-12-07T07:53:25;1.10;99.90
34406;DHT22;20658;45.630;8.886;2022-12-07T07:56:00;1.10;99.90
34406;DHT22;20658;45.630;8.886;2022-12-07T07:58:34;1.20;99.90
34406;DHT22;20658;45.630;8.886;2022-12-07T08:01:07;1.20;99.90
34406;DHT22;20658;45.630;8.886;2022-12-07T08:03:41;1.30;99.90
34406;DHT22;20658;45.630;8.886;2022-12-07T08:06:09;1.30;99.90
34406;DHT22;20658;45.630;8.886;2022-12-07T08:08:43;1.40;99.90
34406;DHT22;20658;45.630;8.886;2022-12-07T08:11:12;1.50;99.90
34406;DHT22;20658;45.630;8.886;2022-12-07T08:13:46;1.60;99.90
34406;DHT22;20658;45.630;8.886;2022-12-07T08:16:19;1.70;99.90
34406;DHT22;20658;45.630;8.886;2022-12-07T08:18:53;1.70;99.90
34406;DHT22;20658;45.630;8.886;2022-12-07T08:21:26;1.80;99.90
34406;DHT22;20658;45.630;8.886;2022-12-07T08:23:59;1.90;99.90
34406;DHT22;20658;45.630;8.886;2022-12-07T08:26:34;2.00;99.90
34406;DHT22;20658;45.630;8.886;2022-12-07T08:29:07;2.00;99.90
34406;DHT22;20658;45.630;8.886;2022-12-07T08:31:41;2.10;99.90
34406;DHT22;20658;45.630;8.886;2022-12-07T08:34:14;2.30;99.90
34406;DHT22;20658;45.630;8.886;2022-12-07T08:36:48;2.30;99.90
34406;DHT22;20658;45.630;8.886;2022-12-07T08:39:21;2.40;99.90
34406;DHT22;20658;45.630;8.886;2022-12-07T08:41:56;2.50;99.90
34406;DHT22;20658;45.630;8.886;2022-12-07T08:44:29;2.60;99.90
34406;DHT22;20658;45.630;8.886;2022-12-07T08:47:00;2.60;99.90
34406;DHT22;20658;45.630;8.886;2022-12-07T08:49:37;2.70;99.90
34406;DHT22;20658;45.630;8.886;2022-12-07T08:52:12;2.80;99.90
34406;DHT22;20658;45.630;8.886;2022-12-07T08:54:47;2.90;99.90
34406;DHT22;20658;45.630;8.886;2022-12-07T08:57:21;2.90;99.90
34406;DHT22;20658;45.630;8.886;2022-12-07T08:59:55;3.10;99.90
34406;DHT22;20658;45.630;8.886;2022-12-07T09:02:29;3.50;99.90
34406;DHT22;20658;45.630;8.886;2022-12-07T09:05:03;3.30;99.90
34406;DHT22;20658;45.630;8.886;2022-12-07T09:07:37;3.40;99.90
34406;DHT22;20658;45.630;8.886;2022-12-07T09:10:11;3.40;99.90
34406;DHT22;20658;45.630;8.886;2022-12-07T09:12:46;4.00;99.90
34406;DHT22;20658;45.630;8.886;2022-12-07T09:15:20;3.70;99.90
34406;DHT22;20658;45.630;8.886;2022-12-07T09:17:53;3.70;99.90
34406;DHT22;20658;45.630;8.886;2022-12-07T09:20:27;3.80;99.90
34406;DHT22;20658;45.630;8.886;2022-12-07T09:23:00;3.90;99.90
34406;DHT22;20658;45.630;8.886;2022-12-07T09:25:34;4.00;99.90
34406;DHT22;20658;45.630;8.886;2022-12-07T09:28:09;4.00;99.90
34406;DHT22;20658;45.630;8.886;2022-12-07T09:30:45;4.10;99.90
34406;DHT22;20658;45.630;8.886;2022-12-07T09:33:19;4.10;99.80
34406;DHT22;20658;45.630;8.886;2022-12-07T09:35:53;4.20;99.40
34406;DHT22;20658;45.630;8.886;2022-12-07T09:38:26;4.50;99.80
34406;DHT22;20658;45.630;8.886;2022-12-07T09:41:05;4.40;99.30
34406;DHT22;20658;45.630;8.886;2022-12-07T09:43:40;4.60;98.70
34406;DHT22;20658;45.630;8.886;2022-12-07T09:46:16;4.60;98.50
34406;DHT22;20658;45.630;8.886;2022-12-07T09:48:51;4.70;98.40
34406;DHT22;20658;45.630;8.886;2022-12-07T09:51:24;4.70;97.90
34406;DHT22;20658;45.630;8.886;2022-12-07T09:53:58;4.70;98.10
34406;DHT22;20658;45.630;8.886;2022-12-07T09:56:32;4.80;97.80
34406;DHT22;20658;45.630;8.886;2022-12-07T09:59:13;5.00;97.40
34406;DHT22;20658;45.630;8.886;2022-12-07T10:01:50;5.00;95.80
34406;DHT22;20658;45.630;8.886;2022-12-07T10:04:25;5.10;95.90
34406;DHT22;20658;45.630;8.886;2022-12-07T10:07:01;5.20;95.80
34406;DHT22;20658;45.630;8.886;2022-12-07T10:09:35;5.30;95.50
34406;DHT22;20658;45.630;8.886;2022-12-07T10:12:09;5.40;95.20
34406;DHT22;20658;45.630;8.886;2022-12-07T10:14:55;5.40;94.40
34406;DHT22;20658;45.630;8.886;2022-12-07T10:17:31;5.50;94.70
34406;DHT22;20658;45.630;8.886;2022-12-07T10:20:19;5.50;94.00
34406;DHT22;20658;45.630;8.886;2022-12-07T10:22:59;5.70;94.30
34406;DHT22;20658;45.630;8.886;2022-12-07T10:25:35;5.80;94.10
34406;DHT22;20658;45.630;8.886;2022-12-07T10:28:14;5.90;93.50
34406;DHT22;20658;45.630;8.886;2022-12-07T10:30:54;5.90;92.40
34406;DHT22;20658;45.630;8.886;2022-12-07T10:33:33;6.00;92.50
34406;DHT22;20658;45.630;8.886;2022-12-07T10:36:18;6.10;93.00
34406;DHT22;20658;45.630;8.886;2022-12-07T10:38:50;6.20;92.20
34406;DHT22;20658;45.630;8.886;2022-12-07T10:41:25;6.20;92.40
34406;DHT22;20658;45.630;8.886;2022-12-07T10:43:55;6.30;92.50
34406;DHT22;20658;45.630;8.886;2022-12-07T10:50:14;6.50;91.80
34406;DHT22;20658;45.630;8.886;2022-12-07T10:53:05;6.50;90.50
34406;DHT22;20658;45.630;8.886;2022-12-07T10:56:21;6.60;90.70
34406;DHT22;20658;45.630;8.886;2022-12-07T11:02:30;6.70;89.70
34406;DHT22;20658;45.630;8.886;2022-12-07T11:05:19;6.80;89.00
34406;DHT22;20658;45.630;8.886;2022-12-07T11:08:04;6.90;88.90
34406;DHT22;20658;45.630;8.886;2022-12-07T11:10:49;6.80;88.30
34406;DHT22;20658;45.630;8.886;2022-12-07T11:13:31;6.80;87.90
34406;DHT22;20658;45.630;8.886;2022-12-07T11:16:21;6.80;88.10
34406;DHT22;20658;45.630;8.886;2022-12-07T11:19:24;6.70;87.80
34406;DHT22;20658;45.630;8.886;2022-12-07T11:22:11;6.80;89.20
34406;DHT22;20658;45.630;8.886;2022-12-07T11:24:52;6.90;89.20
34406;DHT22;20658;45.630;8.886;2022-12-07T11:27:29;7.00;88.30
34406;DHT22;20658;45.630;8.886;2022-12-07T11:30:14;7.10;88.60
34406;DHT22;20658;45.630;8.886;2022-12-07T11:33:00;7.10;87.70
34406;DHT22;20658;45.630;8.886;2022-12-07T11:35:49;7.10;88.00
34406;DHT22;20658;45.630;8.886;2022-12-07T11:38:36;7.10;87.30
34406;DHT22;20658;45.630;8.886;2022-12-07T11:41:12;7.10;87.60
34406;DHT22;20658;45.630;8.886;2022-12-07T11:43:53;7.10;86.60
34406;DHT22;20658;45.630;8.886;2022-12-07T11:46:40;7.00;87.40
34406;DHT22;20658;45.630;8.886;2022-12-07T11:49:23;7.10;87.60
34406;DHT22;20658;45.630;8.886;2022-12-07T11:52:02;7.00;86.40
34406;DHT22;20658;45.630;8.886;2022-12-07T11:54:40;7.00;87.70
34406;DHT22;20658;45.630;8.886;2022-12-07T11:57:15;7.00;87.10
34406;DHT22;20658;45.630;8.886;2022-12-07T11:59:50;7.10;88.20
34406;DHT22;20658;45.630;8.886;2022-12-07T12:02:31;7.10;87.50
34406;DHT22;20658;45.630;8.886;2022-12-07T12:05:14;7.20;87.20
34406;DHT22;20658;45.630;8.886;2022-12-07T12:07:54;7.10;86.10
34406;DHT22;20658;45.630;8.886;2022-12-07T12:10:44;7.30;86.60
34406;DHT22;20658;45.630;8.886;2022-12-07T12:16:59;7.30;86.80
34406;DHT22;20658;45.630;8.886;2022-12-07T12:19:42;7.50;87.10
34406;DHT22;20658;45.630;8.886;2022-12-07T12:22:34;7.30;86.10
34406;DHT22;20658;45.630;8.886;2022-12-07T12:25:20;7.40;86.70
34406;DHT22;20658;45.630;8.886;2022-12-07T12:27:57;7.30;87.10
34406;DHT22;20658;45.630;8.886;2022-12-07T12:30:36;7.40;87.00
34406;DHT22;20658;45.630;8.886;2022-12-07T12:33:15;7.50;87.30
34406;DHT22;20658;45.630;8.886;2022-12-07T12:36:18;7.60;86.50
34406;DHT22;20658;45.630;8.886;2022-12-07T12:39:11;7.60;86.20
34406;DHT22;20658;45.630;8.886;2022-12-07T12:41:58;7.60;86.30
34406;DHT22;20658;45.630;8.886;2022-12-07T12:48:03;7.60;85.80
34406;DHT22;20658;45.630;8.886;2022-12-07T12:50:37;7.60;86.40
34406;DHT22;20658;45.630;8.886;2022-12-07T12:53:22;7.60;86.10
34406;DHT22;20658;45.630;8.886;2022-12-07T12:56:27;7.50;85.50
34406;DHT22;20658;45.630;8.886;2022-12-07T12:59:26;7.60;86.40
34406;DHT22;20658;45.630;8.886;2022-12-07T13:02:16;7.60;85.20
34406;DHT22;20658;45.630;8.886;2022-12-07T13:04:55;7.60;85.50
34406;DHT22;20658;45.630;8.886;2022-12-07T13:07:53;7.60;86.10
34406;DHT22;20658;45.630;8.886;2022-12-07T13:10:43;7.60;85.90
34406;DHT22;20658;45.630;8.886;2022-12-07T13:13:34;7.70;86.50
34406;DHT22;20658;45.630;8.886;2022-12-07T13:16:39;7.70;86.30
34406;DHT22;20658;45.630;8.886;2022-12-07T13:22:41;7.60;85.60
34406;DHT22;20658;45.630;8.886;2022-12-07T13:25:31;7.60;86.20
34406;DHT22;20658;45.630;8.886;2022-12-07T13:28:14;7.60;86.40
34406;DHT22;20658;45.630;8.886;2022-12-07T13:31:14;7.70;86.40
34406;DHT22;20658;45.630;8.886;2022-12-07T13:33:53;7.70;86.10
34406;DHT22;20658;45.630;8.886;2022-12-07T13:36:29;7.60;85.30
34406;DHT22;20658;45.630;8.886;2022-12-07T13:39:16;7.60;85.40
34406;DHT22;20658;45.630;8.886;2022-12-07T13:41:53;7.60;86.00
34406;DHT22;20658;45.630;8.886;2022-12-07T13:44:33;7.60;86.00
34406;DHT22;20658;45.630;8.886;2022-12-07T13:47:06;7.60;85.80
34406;DHT22;20658;45.630;8.886;2022-12-07T13:49:50;7.70;85.70
34406;DHT22;20658;45.630;8.886;2022-12-07T13:52:25;7.60;85.50
34406;DHT22;20658;45.630;8.886;2022-12-07T13:55:05;7.60;85.10
34406;DHT22;20658;45.630;8.886;2022-12-07T13:57:49;7.60;84.90
34406;DHT22;20658;45.630;8.886;2022-12-07T14:00:26;7.50;85.60
34406;DHT22;20658;45.630;8.886;2022-12-07T14:03:03;7.50;86.30
34406;DHT22;20658;45.630;8.886;2022-12-07T14:05:40;7.50;86.00
34406;DHT22;20658;45.630;8.886;2022-12-07T14:08:22;7.50;86.10
34406;DHT22;20658;45.630;8.886;2022-12-07T14:10:57;7.50;86.60
34406;DHT22;20658;45.630;8.886;2022-12-07T14:13:34;7.40;86.20
34406;DHT22;20658;45.630;8.886;2022-12-07T14:16:22;7.40;87.00
34406;DHT22;20658;45.630;8.886;2022-12-07T14:19:00;7.30;87.00
34406;DHT22;20658;45.630;8.886;2022-12-07T14:21:33;7.20;88.30
34406;DHT22;20658;45.630;8.886;2022-12-07T14:24:16;7.20;88.90
34406;DHT22;20658;45.630;8.886;2022-12-07T14:26:51;7.20;89.20
34406;DHT22;20658;45.630;8.886;2022-12-07T14:29:32;7.10;89.60
34406;DHT22;20658;45.630;8.886;2022-12-07T14:32:20;7.30;89.90
34406;DHT22;20658;45.630;8.886;2022-12-07T14:35:01;7.00;90.50
34406;DHT22;20658;45.630;8.886;2022-12-07T14:37:38;7.00;91.30
34406;DHT22;20658;45.630;8.886;2022-12-07T14:40:14;7.00;91.70
34406;DHT22;20658;45.630;8.886;2022-12-07T14:42:51;6.90;92.40
34406;DHT22;20658;45.630;8.886;2022-12-07T14:45:29;6.90;92.90
34406;DHT22;20658;45.630;8.886;2022-12-07T14:48:03;6.80;93.50
34406;DHT22;20658;45.630;8.886;2022-12-07T14:50:39;6.80;93.80
34406;DHT22;20658;45.630;8.886;2022-12-07T14:53:27;6.70;94.40
34406;DHT22;20658;45.630;8.886;2022-12-07T14:56:03;6.60;94.70
34406;DHT22;20658;45.630;8.886;2022-12-07T14:58:38;6.60;95.10
34406;DHT22;20658;45.630;8.886;2022-12-07T15:01:11;6.50;95.40
34406;DHT22;20658;45.630;8.886;2022-12-07T15:03:44;6.40;95.70
34406;DHT22;20658;45.630;8.886;2022-12-07T15:06:15;6.30;95.80
34406;DHT22;20658;45.630;8.886;2022-12-07T15:08:46;6.20;96.10
34406;DHT22;20658;45.630;8.886;2022-12-07T15:11:19;6.20;96.70
34406;DHT22;20658;45.630;8.886;2022-12-07T15:13:52;6.10;97.00
34406;DHT22;20658;45.630;8.886;2022-12-07T15:16:42;6.10;97.30
34406;DHT22;20658;45.630;8.886;2022-12-07T15:19:17;6.00;97.70
34406;DHT22;20658;45.630;8.886;2022-12-07T15:21:53;5.90;98.00
34406;DHT22;20658;45.630;8.886;2022-12-07T15:24:28;5.80;98.40
34406;DHT22;20658;45.630;8.886;2022-12-07T15:27:02;5.80;98.90
34406;DHT22;20658;45.630;8.886;2022-12-07T15:29:35;5.70;99.10
34406;DHT22;20658;45.630;8.886;2022-12-07T15:32:09;5.60;99.20
34406;DHT22;20658;45.630;8.886;2022-12-07T15:34:42;5.50;99.60
34406;DHT22;20658;45.630;8.886;2022-12-07T15:37:10;5.50;99.90
34406;DHT22;20658;45.630;8.886;2022-12-07T15:39:45;5.40;99.90
34406;DHT22;20658;45.630;8.886;2022-12-07T15:42:13;5.30;99.90
34406;DHT22;20658;45.630;8.886;2022-12-07T15:44:47;5.30;99.90
34406;DHT22;20658;45.630;8.886;2022-12-07T15:47:39;5.20;99.90
34406;DHT22;20658;45.630;8.886;2022-12-07T15:50:15;5.10;99.90
34406;DHT22;20658;45.630;8.886;2022-12-07T15:52:49;5.10;99.90
34406;DHT22;20658;45.630;8.886;2022-12-07T15:55:19;5.00;99.90
34406;DHT22;20658;45.630;8.886;2022-12-07T15:57:52;5.00;99.90
34406;DHT22;20658;45.630;8.886;2022-12-07T16:00:28;4.90;99.90
34406;DHT22;20658;45.630;8.886;2022-12-07T16:03:02;4.90;99.90
34406;DHT22;20658;45.630;8.886;2022-12-07T16:05:38;5.00;99.90
34406;DHT22;20658;45.630;8.886;2022-12-07T16:08:12;4.70;99.90
34406;DHT22;20658;45.630;8.886;2022-12-07T16:10:46;4.70;99.90
34406;DHT22;20658;45.630;8.886;2022-12-07T16:13:15;4.60;99.90
34406;DHT22;20658;45.630;8.886;2022-12-07T16:15:49;4.60;99.90
34406;DHT22;20658;45.630;8.886;2022-12-07T16:18:23;4.50;99.90
34406;DHT22;20658;45.630;8.886;2022-12-07T16:20:56;4.60;99.90
34406;DHT22;20658;45.630;8.886;2022-12-07T16:23:30;4.40;99.90
34406;DHT22;20658;45.630;8.886;2022-12-07T16:26:06;4.40;99.90
34406;DHT22;20658;45.630;8.886;2022-12-07T16:28:41;4.30;99.90
34406;DHT22;20658;45.630;8.886;2022-12-07T16:31:17;4.30;99.90
34406;DHT22;20658;45.630;8.886;2022-12-07T16:33:53;4.70;99.90
34406;DHT22;20658;45.630;8.886;2022-12-07T16:36:27;4.30;99.90
34406;DHT22;20658;45.630;8.886;2022-12-07T16:39:01;4.30;99.90
34406;DHT22;20658;45.630;8.886;2022-12-07T16:41:37;4.30;99.90
34406;DHT22;20658;45.630;8.886;2022-12-07T16:44:11;4.20;99.90
34406;DHT22;20658;45.630;8.886;2022-12-07T16:46:45;4.20;99.90
34406;DHT22;20658;45.630;8.886;2022-12-07T16:49:18;4.20;99.90
34406;DHT22;20658;45.630;8.886;2022-12-07T16:51:52;4.10;99.90
34406;DHT22;20658;45.630;8.886;2022-12-07T16:54:25;4.40;99.90
34406;DHT22;20658;45.630;8.886;2022-12-07T16:57:04;4.10;99.90
34406;DHT22;20658;45.630;8.886;2022-12-07T16:59:37;4.00;99.90
34406;DHT22;20658;45.630;8.886;2022-12-07T17:02:11;3.90;99.90